sensor_id;sensor_type;location;lat;lon;timestamp;P1;durP1;ratioP1;P2;durP2;ratioP2
75667;SDS011;64266;48.798;44.756;2023-03-23T00:05:06;19.65;;;8.55;;
75667;SDS011;64266;48.798;44.756;2023-03-23T00:10:08;16.50;;;8.10;;
75667;SDS011;64266;48.798;44.756;2023-03-23T00:15:10;15.43;;;6.93;;
75667;SDS011;64266;48.798;44.756;2023-03-23T00:20:14;12.23;;;6.55;;
75667;SDS011;64266;48.798;44.756;2023-03-23T00:25:16;13.63;;;7.10;;
75667;SDS011;64266;48.798;44.756;2023-03-23T00:30:17;16.48;;;6.95;;
75667;SDS011;64266;48.798;44.756;2023-03-23T00:35:18;14.65;;;7.60;;
75667;SDS011;64266;48.798;44.756;2023-03-23T00:40:21;13.65;;;7.13;;
75667;SDS011;64266;48.798;44.756;2023-03-23T00:45:23;13.27;;;7.20;;
75667;SDS011;64266;48.798;44.756;2023-03-23T00:50:25;15.90;;;8.07;;
75667;SDS011;64266;48.798;44.756;2023-03-23T00:55:28;19.25;;;8.80;;
75667;SDS011;64266;48.798;44.756;2023-03-23T01:00:31;16.73;;;7.88;;
75667;SDS011;64266;48.798;44.756;2023-03-23T01:05:36;18.20;;;8.20;;
75667;SDS011;64266;48.798;44.756;2023-03-23T01:10:37;27.85;;;13.30;;
75667;SDS011;64266;48.798;44.756;2023-03-23T01:15:39;25.98;;;13.80;;
75667;SDS011;64266;48.798;44.756;2023-03-23T01:20:41;34.72;;;19.08;;
75667;SDS011;64266;48.798;44.756;2023-03-23T01:25:43;19.42;;;10.15;;
75667;SDS011;64266;48.798;44.756;2023-03-23T01:30:46;17.02;;;8.30;;
75667;SDS011;64266;48.798;44.756;2023-03-23T01:35:48;12.43;;;6.82;;
75667;SDS011;64266;48.798;44.756;2023-03-23T01:40:52;15.65;;;7.65;;
75667;SDS011;64266;48.798;44.756;2023-03-23T01:45:54;13.68;;;7.30;;
75667;SDS011;64266;48.798;44.756;2023-03-23T01:56:10;13.85;;;6.20;;
75667;SDS011;64266;48.798;44.756;2023-03-23T02:01:13;12.80;;;6.30;;
75667;SDS011;64266;48.798;44.756;2023-03-23T02:06:17;13.02;;;6.38;;
75667;SDS011;64266;48.798;44.756;2023-03-23T02:11:40;13.70;;;6.72;;
75667;SDS011;64266;48.798;44.756;2023-03-23T02:17:02;16.02;;;7.53;;
75667;SDS011;64266;48.798;44.756;2023-03-23T02:22:31;14.02;;;7.03;;
75667;SDS011;64266;48.798;44.756;2023-03-23T02:38:22;29.08;;;15.88;;
75667;SDS011;64266;48.798;44.756;2023-03-23T02:43:33;28.65;;;16.83;;
75667;SDS011;64266;48.798;44.756;2023-03-23T02:48:39;23.23;;;12.35;;
75667;SDS011;64266;48.798;44.756;2023-03-23T02:53:43;20.27;;;9.32;;
75667;SDS011;64266;48.798;44.756;2023-03-23T02:58:46;16.70;;;8.02;;
75667;SDS011;64266;48.798;44.756;2023-03-23T03:03:48;23.08;;;7.88;;
75667;SDS011;64266;48.798;44.756;2023-03-23T03:08:52;18.40;;;8.93;;
75667;SDS011;64266;48.798;44.756;2023-03-23T03:14:03;21.33;;;11.65;;
75667;SDS011;64266;48.798;44.756;2023-03-23T03:19:22;30.75;;;15.05;;
75667;SDS011;64266;48.798;44.756;2023-03-23T03:24:28;24.55;;;14.20;;
75667;SDS011;64266;48.798;44.756;2023-03-23T03:29:35;22.10;;;9.98;;
75667;SDS011;64266;48.798;44.756;2023-03-23T03:34:43;17.35;;;7.82;;
75667;SDS011;64266;48.798;44.756;2023-03-23T03:39:45;18.45;;;9.35;;
75667;SDS011;64266;48.798;44.756;2023-03-23T03:44:47;19.88;;;7.50;;
75667;SDS011;64266;48.798;44.756;2023-03-23T03:49:48;17.73;;;8.25;;
75667;SDS011;64266;48.798;44.756;2023-03-23T03:54:50;15.38;;;7.85;;
75667;SDS011;64266;48.798;44.756;2023-03-23T03:59:52;14.23;;;7.30;;
75667;SDS011;64266;48.798;44.756;2023-03-23T04:05:12;18.08;;;9.23;;
75667;SDS011;64266;48.798;44.756;2023-03-23T04:10:17;17.00;;;9.43;;
75667;SDS011;64266;48.798;44.756;2023-03-23T04:15:28;20.92;;;10.80;;
75667;SDS011;64266;48.798;44.756;2023-03-23T04:20:29;20.63;;;9.60;;
75667;SDS011;64266;48.798;44.756;2023-03-23T04:25:31;18.35;;;8.90;;
75667;SDS011;64266;48.798;44.756;2023-03-23T04:30:34;21.75;;;11.35;;
75667;SDS011;64266;48.798;44.756;2023-03-23T04:35:40;22.15;;;11.82;;
75667;SDS011;64266;48.798;44.756;2023-03-23T04:40:49;25.85;;;12.27;;
75667;SDS011;64266;48.798;44.756;2023-03-23T04:46:13;26.20;;;12.63;;
75667;SDS011;64266;48.798;44.756;2023-03-23T04:51:22;25.10;;;12.80;;
75667;SDS011;64266;48.798;44.756;2023-03-23T04:56:26;29.17;;;12.13;;
75667;SDS011;64266;48.798;44.756;2023-03-23T05:01:30;30.23;;;13.07;;
75667;SDS011;64266;48.798;44.756;2023-03-23T05:06:46;27.95;;;12.52;;
75667;SDS011;64266;48.798;44.756;2023-03-23T05:11:56;31.08;;;10.70;;
75667;SDS011;64266;48.798;44.756;2023-03-23T05:17:01;36.40;;;10.98;;
75667;SDS011;64266;48.798;44.756;2023-03-23T05:22:05;31.95;;;10.10;;
75667;SDS011;64266;48.798;44.756;2023-03-23T05:27:18;34.65;;;10.80;;
75667;SDS011;64266;48.798;44.756;2023-03-23T05:32:27;44.50;;;11.63;;
75667;SDS011;64266;48.798;44.756;2023-03-23T05:37:43;38.20;;;10.95;;
75667;SDS011;64266;48.798;44.756;2023-03-23T05:42:47;35.20;;;9.88;;
75667;SDS011;64266;48.798;44.756;2023-03-23T05:47:54;27.00;;;9.82;;
75667;SDS011;64266;48.798;44.756;2023-03-23T05:53:03;27.42;;;10.02;;
75667;SDS011;64266;48.798;44.756;2023-03-23T05:58:07;34.33;;;10.40;;
75667;SDS011;64266;48.798;44.756;2023-03-23T06:03:12;37.90;;;11.25;;
75667;SDS011;64266;48.798;44.756;2023-03-23T06:08:22;31.55;;;9.70;;
75667;SDS011;64266;48.798;44.756;2023-03-23T06:13:25;24.40;;;9.15;;
75667;SDS011;64266;48.798;44.756;2023-03-23T06:18:30;14.38;;;7.78;;
75667;SDS011;64266;48.798;44.756;2023-03-23T06:23:43;20.05;;;7.97;;
75667;SDS011;64266;48.798;44.756;2023-03-23T06:28:48;33.92;;;9.93;;
75667;SDS011;64266;48.798;44.756;2023-03-23T06:33:50;27.63;;;9.68;;
75667;SDS011;64266;48.798;44.756;2023-03-23T06:38:59;31.48;;;9.13;;
75667;SDS011;64266;48.798;44.756;2023-03-23T06:44:15;23.17;;;8.05;;
75667;SDS011;64266;48.798;44.756;2023-03-23T06:49:18;18.95;;;6.38;;
75667;SDS011;64266;48.798;44.756;2023-03-23T06:54:30;15.65;;;6.90;;
75667;SDS011;64266;48.798;44.756;2023-03-23T06:59:34;17.30;;;6.65;;
75667;SDS011;64266;48.798;44.756;2023-03-23T07:04:38;13.43;;;6.30;;
75667;SDS011;64266;48.798;44.756;2023-03-23T07:09:45;18.42;;;5.80;;
75667;SDS011;64266;48.798;44.756;2023-03-23T07:19:52;29.70;;;8.98;;
75667;SDS011;64266;48.798;44.756;2023-03-23T07:24:56;32.47;;;10.38;;
75667;SDS011;64266;48.798;44.756;2023-03-23T07:30:04;32.70;;;14.93;;
75667;SDS011;64266;48.798;44.756;2023-03-23T07:35:09;28.67;;;12.32;;
75667;SDS011;64266;48.798;44.756;2023-03-23T07:40:28;36.67;;;14.30;;
75667;SDS011;64266;48.798;44.756;2023-03-23T07:45:36;33.78;;;14.35;;
75667;SDS011;64266;48.798;44.756;2023-03-23T07:50:38;20.42;;;10.45;;
75667;SDS011;64266;48.798;44.756;2023-03-23T07:55:43;26.58;;;11.27;;
75667;SDS011;64266;48.798;44.756;2023-03-23T08:01:11;26.50;;;11.80;;
75667;SDS011;64266;48.798;44.756;2023-03-23T08:06:20;31.75;;;14.52;;
75667;SDS011;64266;48.798;44.756;2023-03-23T08:11:48;24.00;;;11.45;;
75667;SDS011;64266;48.798;44.756;2023-03-23T08:17:10;19.88;;;8.73;;
75667;SDS011;64266;48.798;44.756;2023-03-23T08:22:23;26.63;;;10.50;;
75667;SDS011;64266;48.798;44.756;2023-03-23T08:27:46;26.45;;;9.48;;
75667;SDS011;64266;48.798;44.756;2023-03-23T08:32:55;31.02;;;9.73;;
75667;SDS011;64266;48.798;44.756;2023-03-23T08:38:20;30.60;;;11.00;;
75667;SDS011;64266;48.798;44.756;2023-03-23T08:43:43;22.50;;;7.88;;
75667;SDS011;64266;48.798;44.756;2023-03-23T08:48:53;18.80;;;5.80;;
75667;SDS011;64266;48.798;44.756;2023-03-23T08:54:14;13.63;;;4.95;;
75667;SDS011;64266;48.798;44.756;2023-03-23T08:59:50;14.07;;;5.53;;
75667;SDS011;64266;48.798;44.756;2023-03-23T09:05:09;18.05;;;4.80;;
75667;SDS011;64266;48.798;44.756;2023-03-23T09:10:37;13.50;;;4.88;;
75667;SDS011;64266;48.798;44.756;2023-03-23T09:15:45;16.65;;;5.53;;
75667;SDS011;64266;48.798;44.756;2023-03-23T09:20:53;16.30;;;5.10;;
75667;SDS011;64266;48.798;44.756;2023-03-23T09:25:55;14.43;;;4.80;;
75667;SDS011;64266;48.798;44.756;2023-03-23T09:30:57;15.65;;;5.47;;
75667;SDS011;64266;48.798;44.756;2023-03-23T09:36:01;13.25;;;4.57;;
75667;SDS011;64266;48.798;44.756;2023-03-23T09:41:06;12.68;;;4.47;;
75667;SDS011;64266;48.798;44.756;2023-03-23T09:46:32;19.10;;;7.85;;
75667;SDS011;64266;48.798;44.756;2023-03-23T09:52:01;15.93;;;5.00;;
75667;SDS011;64266;48.798;44.756;2023-03-23T09:57:15;14.52;;;4.38;;
75667;SDS011;64266;48.798;44.756;2023-03-23T10:02:30;20.48;;;4.95;;
75667;SDS011;64266;48.798;44.756;2023-03-23T10:07:38;11.38;;;3.97;;
75667;SDS011;64266;48.798;44.756;2023-03-23T10:19:04;15.90;;;4.35;;
75667;SDS011;64266;48.798;44.756;2023-03-23T10:24:09;8.23;;;4.00;;
75667;SDS011;64266;48.798;44.756;2023-03-23T10:29:21;21.38;;;5.55;;
75667;SDS011;64266;48.798;44.756;2023-03-23T10:34:51;21.63;;;11.27;;
75667;SDS011;64266;48.798;44.756;2023-03-23T10:39:59;10.73;;;4.05;;
75667;SDS011;64266;48.798;44.756;2023-03-23T10:50:17;15.20;;;7.40;;
75667;SDS011;64266;48.798;44.756;2023-03-23T10:55:35;13.63;;;4.25;;
75667;SDS011;64266;48.798;44.756;2023-03-23T11:00:43;19.75;;;5.28;;
75667;SDS011;64266;48.798;44.756;2023-03-23T11:05:56;12.65;;;4.53;;
75667;SDS011;64266;48.798;44.756;2023-03-23T11:11:17;14.02;;;4.50;;
75667;SDS011;64266;48.798;44.756;2023-03-23T11:16:23;8.55;;;4.10;;
75667;SDS011;64266;48.798;44.756;2023-03-23T11:21:27;15.40;;;4.25;;
75667;SDS011;64266;48.798;44.756;2023-03-23T11:26:30;11.57;;;4.18;;
75667;SDS011;64266;48.798;44.756;2023-03-23T11:31:40;15.38;;;4.78;;
75667;SDS011;64266;48.798;44.756;2023-03-23T11:37:03;14.52;;;4.25;;
75667;SDS011;64266;48.798;44.756;2023-03-23T11:42:17;20.40;;;4.72;;
75667;SDS011;64266;48.798;44.756;2023-03-23T11:52:37;19.08;;;4.28;;
75667;SDS011;64266;48.798;44.756;2023-03-23T11:58:03;18.40;;;4.10;;
75667;SDS011;64266;48.798;44.756;2023-03-23T12:03:32;11.57;;;3.92;;
75667;SDS011;64266;48.798;44.756;2023-03-23T12:25:00;19.88;;;4.85;;
75667;SDS011;64266;48.798;44.756;2023-03-23T12:30:31;16.98;;;5.00;;
75667;SDS011;64266;48.798;44.756;2023-03-23T12:35:45;15.80;;;4.55;;
75667;SDS011;64266;48.798;44.756;2023-03-23T12:41:09;15.50;;;3.85;;
75667;SDS011;64266;48.798;44.756;2023-03-23T12:52:30;13.90;;;4.20;;
75667;SDS011;64266;48.798;44.756;2023-03-23T13:08:16;16.92;;;4.10;;
75667;SDS011;64266;48.798;44.756;2023-03-23T13:13:23;17.75;;;6.32;;
75667;SDS011;64266;48.798;44.756;2023-03-23T13:18:35;11.98;;;4.35;;
75667;SDS011;64266;48.798;44.756;2023-03-23T13:23:44;12.85;;;4.13;;
75667;SDS011;64266;48.798;44.756;2023-03-23T13:28:54;10.73;;;3.63;;
75667;SDS011;64266;48.798;44.756;2023-03-23T13:34:04;12.38;;;3.75;;
75667;SDS011;64266;48.798;44.756;2023-03-23T13:39:23;15.05;;;4.57;;
75667;SDS011;64266;48.798;44.756;2023-03-23T13:44:38;13.05;;;4.53;;
75667;SDS011;64266;48.798;44.756;2023-03-23T13:49:45;12.95;;;4.32;;
75667;SDS011;64266;48.798;44.756;2023-03-23T13:55:08;20.15;;;6.93;;
75667;SDS011;64266;48.798;44.756;2023-03-23T14:05:35;11.50;;;4.00;;
75667;SDS011;64266;48.798;44.756;2023-03-23T14:10:42;12.02;;;4.15;;
75667;SDS011;64266;48.798;44.756;2023-03-23T14:16:04;12.70;;;4.05;;
75667;SDS011;64266;48.798;44.756;2023-03-23T14:21:17;6.55;;;3.40;;
75667;SDS011;64266;48.798;44.756;2023-03-23T14:26:23;10.30;;;4.05;;
75667;SDS011;64266;48.798;44.756;2023-03-23T14:31:26;12.98;;;4.22;;
75667;SDS011;64266;48.798;44.756;2023-03-23T14:36:29;12.20;;;3.97;;
75667;SDS011;64266;48.798;44.756;2023-03-23T14:41:33;14.60;;;4.00;;
75667;SDS011;64266;48.798;44.756;2023-03-23T14:46:36;8.77;;;3.85;;
75667;SDS011;64266;48.798;44.756;2023-03-23T14:51:46;13.60;;;4.22;;
75667;SDS011;64266;48.798;44.756;2023-03-23T14:56:48;22.73;;;5.95;;
75667;SDS011;64266;48.798;44.756;2023-03-23T15:01:50;25.65;;;7.93;;
75667;SDS011;64266;48.798;44.756;2023-03-23T15:06:54;45.10;;;9.13;;
75667;SDS011;64266;48.798;44.756;2023-03-23T15:12:02;58.13;;;11.00;;
75667;SDS011;64266;48.798;44.756;2023-03-23T15:17:09;43.72;;;8.57;;
75667;SDS011;64266;48.798;44.756;2023-03-23T15:22:30;24.10;;;7.35;;
75667;SDS011;64266;48.798;44.756;2023-03-23T15:27:33;25.40;;;8.35;;
75667;SDS011;64266;48.798;44.756;2023-03-23T15:32:41;35.03;;;12.95;;
75667;SDS011;64266;48.798;44.756;2023-03-23T15:37:47;38.25;;;14.18;;
75667;SDS011;64266;48.798;44.756;2023-03-23T15:43:06;42.42;;;13.65;;
75667;SDS011;64266;48.798;44.756;2023-03-23T15:48:12;47.97;;;15.00;;
75667;SDS011;64266;48.798;44.756;2023-03-23T15:58:28;41.75;;;12.20;;
75667;SDS011;64266;48.798;44.756;2023-03-23T16:09:03;33.30;;;10.05;;
75667;SDS011;64266;48.798;44.756;2023-03-23T16:14:07;28.88;;;10.52;;
75667;SDS011;64266;48.798;44.756;2023-03-23T16:19:11;29.30;;;10.10;;
75667;SDS011;64266;48.798;44.756;2023-03-23T16:24:14;30.60;;;9.75;;
75667;SDS011;64266;48.798;44.756;2023-03-23T16:29:17;30.63;;;10.20;;
75667;SDS011;64266;48.798;44.756;2023-03-23T16:34:39;31.50;;;11.55;;
75667;SDS011;64266;48.798;44.756;2023-03-23T16:39:41;26.75;;;10.07;;
75667;SDS011;64266;48.798;44.756;2023-03-23T16:44:44;30.83;;;9.85;;
75667;SDS011;64266;48.798;44.756;2023-03-23T16:49:47;30.30;;;10.27;;
75667;SDS011;64266;48.798;44.756;2023-03-23T16:54:49;25.13;;;9.07;;
75667;SDS011;64266;48.798;44.756;2023-03-23T16:59:52;26.90;;;10.15;;
75667;SDS011;64266;48.798;44.756;2023-03-23T17:04:54;29.05;;;9.45;;
75667;SDS011;64266;48.798;44.756;2023-03-23T17:09:57;25.02;;;10.60;;
75667;SDS011;64266;48.798;44.756;2023-03-23T17:15:01;28.70;;;10.38;;
75667;SDS011;64266;48.798;44.756;2023-03-23T17:20:04;24.83;;;8.88;;
75667;SDS011;64266;48.798;44.756;2023-03-23T17:25:08;27.73;;;9.25;;
75667;SDS011;64266;48.798;44.756;2023-03-23T17:30:12;21.13;;;9.15;;
75667;SDS011;64266;48.798;44.756;2023-03-23T17:35:14;23.40;;;9.18;;
75667;SDS011;64266;48.798;44.756;2023-03-23T17:40:17;24.38;;;9.88;;
75667;SDS011;64266;48.798;44.756;2023-03-23T17:45:19;16.95;;;8.00;;
75667;SDS011;64266;48.798;44.756;2023-03-23T17:50:22;20.00;;;8.93;;
75667;SDS011;64266;48.798;44.756;2023-03-23T17:55:25;20.13;;;8.50;;
75667;SDS011;64266;48.798;44.756;2023-03-23T18:00:28;19.20;;;8.20;;
75667;SDS011;64266;48.798;44.756;2023-03-23T18:05:30;17.35;;;7.68;;
75667;SDS011;64266;48.798;44.756;2023-03-23T18:10:34;16.63;;;7.97;;
75667;SDS011;64266;48.798;44.756;2023-03-23T18:15:38;25.27;;;8.13;;
75667;SDS011;64266;48.798;44.756;2023-03-23T18:20:52;17.98;;;7.35;;
75667;SDS011;64266;48.798;44.756;2023-03-23T18:26:02;20.98;;;7.97;;
75667;SDS011;64266;48.798;44.756;2023-03-23T18:31:08;26.77;;;9.13;;
75667;SDS011;64266;48.798;44.756;2023-03-23T18:36:15;23.38;;;9.77;;
75667;SDS011;64266;48.798;44.756;2023-03-23T18:41:20;27.33;;;9.93;;
75667;SDS011;64266;48.798;44.756;2023-03-23T18:46:22;25.70;;;9.00;;
75667;SDS011;64266;48.798;44.756;2023-03-23T18:51:25;38.85;;;11.95;;
75667;SDS011;64266;48.798;44.756;2023-03-23T18:56:27;30.60;;;14.30;;
75667;SDS011;64266;48.798;44.756;2023-03-23T19:01:30;34.38;;;15.15;;
75667;SDS011;64266;48.798;44.756;2023-03-23T19:06:32;39.33;;;17.48;;
75667;SDS011;64266;48.798;44.756;2023-03-23T19:11:36;36.72;;;17.35;;
75667;SDS011;64266;48.798;44.756;2023-03-23T19:16:39;36.97;;;17.48;;
75667;SDS011;64266;48.798;44.756;2023-03-23T19:21:43;38.38;;;17.05;;
75667;SDS011;64266;48.798;44.756;2023-03-23T19:26:47;29.95;;;14.80;;
75667;SDS011;64266;48.798;44.756;2023-03-23T19:31:51;28.33;;;13.73;;
75667;SDS011;64266;48.798;44.756;2023-03-23T19:36:54;35.28;;;16.85;;
75667;SDS011;64266;48.798;44.756;2023-03-23T19:42:06;29.10;;;14.68;;
75667;SDS011;64266;48.798;44.756;2023-03-23T19:47:09;27.33;;;14.45;;
75667;SDS011;64266;48.798;44.756;2023-03-23T19:52:12;20.25;;;12.45;;
75667;SDS011;64266;48.798;44.756;2023-03-23T19:57:18;20.75;;;8.10;;
75667;SDS011;64266;48.798;44.756;2023-03-23T20:02:21;21.50;;;9.00;;
75667;SDS011;64266;48.798;44.756;2023-03-23T20:07:24;15.40;;;7.70;;
75667;SDS011;64266;48.798;44.756;2023-03-23T20:12:27;18.23;;;7.63;;
75667;SDS011;64266;48.798;44.756;2023-03-23T20:17:30;16.10;;;7.70;;
75667;SDS011;64266;48.798;44.756;2023-03-23T20:22:35;17.42;;;7.47;;
75667;SDS011;64266;48.798;44.756;2023-03-23T20:27:38;17.00;;;8.07;;
75667;SDS011;64266;48.798;44.756;2023-03-23T20:32:41;30.77;;;15.10;;
75667;SDS011;64266;48.798;44.756;2023-03-23T20:37:47;28.17;;;13.50;;
75667;SDS011;64266;48.798;44.756;2023-03-23T20:42:51;24.27;;;11.52;;
75667;SDS011;64266;48.798;44.756;2023-03-23T20:47:55;17.50;;;9.40;;
75667;SDS011;64266;48.798;44.756;2023-03-23T20:52:58;23.92;;;10.18;;
75667;SDS011;64266;48.798;44.756;2023-03-23T20:58:00;28.20;;;12.38;;
75667;SDS011;64266;48.798;44.756;2023-03-23T21:03:03;29.50;;;15.00;;
75667;SDS011;64266;48.798;44.756;2023-03-23T21:08:07;26.85;;;14.23;;
75667;SDS011;64266;48.798;44.756;2023-03-23T21:13:12;26.42;;;14.25;;
75667;SDS011;64266;48.798;44.756;2023-03-23T21:18:16;25.95;;;13.20;;
75667;SDS011;64266;48.798;44.756;2023-03-23T21:23:19;27.25;;;13.85;;
75667;SDS011;64266;48.798;44.756;2023-03-23T21:28:23;28.33;;;14.27;;
75667;SDS011;64266;48.798;44.756;2023-03-23T21:33:28;26.50;;;13.43;;
75667;SDS011;64266;48.798;44.756;2023-03-23T21:38:31;27.88;;;12.43;;
75667;SDS011;64266;48.798;44.756;2023-03-23T21:43:33;28.95;;;13.65;;
75667;SDS011;64266;48.798;44.756;2023-03-23T21:48:37;29.20;;;14.98;;
75667;SDS011;64266;48.798;44.756;2023-03-23T21:53:42;34.10;;;17.00;;
75667;SDS011;64266;48.798;44.756;2023-03-23T21:58:45;33.80;;;16.98;;
75667;SDS011;64266;48.798;44.756;2023-03-23T22:03:48;31.85;;;16.25;;
75667;SDS011;64266;48.798;44.756;2023-03-23T22:08:52;22.95;;;11.27;;
75667;SDS011;64266;48.798;44.756;2023-03-23T22:14:08;25.65;;;10.18;;
75667;SDS011;64266;48.798;44.756;2023-03-23T22:19:11;21.70;;;8.57;;
75667;SDS011;64266;48.798;44.756;2023-03-23T22:24:15;16.70;;;8.05;;
75667;SDS011;64266;48.798;44.756;2023-03-23T22:29:20;17.65;;;7.68;;
75667;SDS011;64266;48.798;44.756;2023-03-23T22:34:24;20.15;;;8.63;;
75667;SDS011;64266;48.798;44.756;2023-03-23T22:39:27;23.23;;;9.98;;
75667;SDS011;64266;48.798;44.756;2023-03-23T22:44:31;33.05;;;15.68;;
75667;SDS011;64266;48.798;44.756;2023-03-23T22:49:34;36.45;;;17.17;;
75667;SDS011;64266;48.798;44.756;2023-03-23T22:54:37;32.80;;;18.30;;
75667;SDS011;64266;48.798;44.756;2023-03-23T22:59:39;34.55;;;18.25;;
75667;SDS011;64266;48.798;44.756;2023-03-23T23:04:43;36.95;;;17.08;;
75667;SDS011;64266;48.798;44.756;2023-03-23T23:09:46;31.95;;;13.40;;
75667;SDS011;64266;48.798;44.756;2023-03-23T23:14:49;18.33;;;7.90;;
75667;SDS011;64266;48.798;44.756;2023-03-23T23:19:52;17.67;;;7.65;;
75667;SDS011;64266;48.798;44.756;2023-03-23T23:24:55;15.38;;;7.63;;
75667;SDS011;64266;48.798;44.756;2023-03-23T23:29:57;15.82;;;7.05;;
75667;SDS011;64266;48.798;44.756;2023-03-23T23:35:03;12.55;;;7.80;;
75667;SDS011;64266;48.798;44.756;2023-03-23T23:40:07;17.08;;;7.82;;
75667;SDS011;64266;48.798;44.756;2023-03-23T23:45:10;14.60;;;7.95;;
75667;SDS011;64266;48.798;44.756;2023-03-23T23:50:13;20.55;;;8.90;;
75667;SDS011;64266;48.798;44.756;2023-03-23T23:55:18;17.23;;;8.18;;
